createdAt,value
2022-10-18T00:02:20.407Z,15.80
2022-10-18T00:04:47.153Z,17.55
2022-10-18T00:07:13.650Z,18.17
2022-10-18T00:09:40.479Z,16.83
2022-10-18T00:12:07.009Z,15.60
2022-10-18T00:14:33.710Z,16.50
2022-10-18T00:17:00.384Z,17.27
2022-10-18T00:19:29.355Z,18.55
2022-10-18T00:21:56.539Z,18.55
2022-10-18T00:24:24.196Z,16.83
2022-10-18T00:26:50.789Z,16.02
2022-10-18T00:29:17.464Z,16.55
2022-10-18T00:31:44.301Z,16.30
2022-10-18T00:34:16.267Z,15.60
2022-10-18T00:36:44.471Z,16.25
2022-10-18T00:39:21.571Z,15.18
2022-10-18T00:41:49.109Z,15.88
2022-10-18T00:44:15.657Z,16.65
2022-10-18T00:46:47.401Z,14.93
2022-10-18T00:49:28.420Z,15.32
2022-10-18T00:52:22.988Z,15.15
2022-10-18T00:54:52.340Z,15.07
2022-10-18T00:57:19.117Z,15.32
2022-10-18T00:59:46.552Z,15.65
2022-10-18T01:02:15.928Z,14.75
2022-10-18T01:04:42.608Z,15.20
2022-10-18T01:07:34.758Z,15.68
2022-10-18T01:10:24.126Z,15.23
2022-10-18T01:13:12.648Z,14.02
2022-10-18T01:16:01.198Z,15.75
2022-10-18T01:18:41.155Z,14.60
2022-10-18T01:21:22.674Z,14.60
2022-10-18T01:24:08.235Z,13.57
2022-10-18T01:27:03.435Z,15.23
2022-10-18T01:29:50.740Z,13.27
2022-10-18T01:32:24.431Z,14.93
2022-10-18T01:34:54.937Z,14.13
2022-10-18T01:37:22.692Z,15.50
2022-10-18T01:39:53.834Z,15.07
2022-10-18T01:42:21.421Z,13.32
2022-10-18T01:44:50.972Z,13.60
2022-10-18T01:47:19.233Z,15.68
2022-10-18T01:49:46.110Z,15.90
2022-10-18T01:52:14.389Z,13.85
2022-10-18T01:54:46.076Z,15.48
2022-10-18T01:57:24.967Z,13.48
2022-10-18T02:00:14.779Z,16.73
2022-10-18T02:02:53.822Z,16.33
2022-10-18T02:05:40.156Z,15.13
2022-10-18T02:08:22.853Z,14.60
2022-10-18T02:10:56.110Z,16.20
2022-10-18T02:13:25.596Z,15.82
2022-10-18T02:15:58.604Z,16.83
2022-10-18T02:18:34.324Z,16.02
2022-10-18T02:21:03.706Z,16.67
2022-10-18T02:23:32.297Z,15.23
2022-10-18T02:25:59.040Z,15.18
2022-10-18T02:28:26.056Z,15.00
2022-10-18T02:31:23.163Z,17.27
2022-10-18T02:33:57.517Z,15.07
2022-10-18T02:36:29.159Z,16.70
2022-10-18T02:39:03.316Z,17.08
2022-10-18T02:41:31.811Z,16.40
2022-10-18T02:43:58.550Z,16.05
2022-10-18T02:48:51.735Z,20.05
2022-10-18T02:51:18.281Z,19.70
2022-10-18T02:53:44.898Z,18.30
2022-10-18T02:56:11.518Z,21.30
2022-10-18T02:58:38.160Z,18.15
2022-10-18T03:01:04.840Z,18.65
2022-10-18T03:03:31.400Z,18.55
2022-10-18T03:05:58.028Z,19.73
2022-10-18T03:08:25.196Z,19.70
2022-10-18T03:10:52.248Z,18.58
2022-10-18T03:13:19.017Z,17.00
2022-10-18T03:15:47.251Z,17.83
2022-10-18T03:18:14.370Z,18.75
2022-10-18T03:20:41.460Z,20.55
2022-10-18T03:23:08.026Z,17.83
2022-10-18T03:25:34.589Z,17.23
2022-10-18T03:28:01.311Z,17.00
2022-10-18T03:30:27.957Z,16.92
2022-10-18T03:32:54.644Z,17.92
2022-10-18T03:35:21.542Z,16.20
2022-10-18T03:37:48.387Z,17.33
2022-10-18T03:40:15.023Z,15.20
2022-10-18T03:42:41.636Z,17.50
2022-10-18T03:45:08.646Z,18.15
2022-10-18T03:47:35.249Z,16.33
2022-10-18T03:50:02.006Z,18.30
2022-10-18T03:52:28.777Z,19.08
2022-10-18T03:54:55.536Z,16.45
2022-10-18T03:57:22.120Z,16.65
2022-10-18T03:59:48.860Z,16.50
2022-10-18T04:02:15.485Z,16.25
2022-10-18T04:04:42.226Z,15.50
2022-10-18T04:07:08.796Z,16.98
2022-10-18T04:09:35.433Z,15.52
2022-10-18T04:12:01.983Z,15.68
2022-10-18T04:14:28.731Z,20.00
2022-10-18T04:16:55.284Z,17.63
2022-10-18T04:19:21.842Z,16.30
2022-10-18T04:21:48.500Z,16.60
2022-10-18T04:24:17.087Z,16.02
2022-10-18T04:26:43.684Z,14.63
2022-10-18T04:29:10.347Z,17.83
2022-10-18T04:31:37.193Z,17.08
2022-10-18T04:34:04.496Z,15.20
2022-10-18T04:36:31.698Z,16.30
2022-10-18T04:38:58.299Z,16.38
2022-10-18T04:41:24.944Z,16.00
2022-10-18T04:43:51.518Z,15.40
2022-10-18T04:46:18.375Z,17.17
2022-10-18T04:48:45.006Z,19.42
2022-10-18T04:51:11.645Z,15.98
2022-10-18T04:53:38.204Z,17.77
2022-10-18T04:56:05.044Z,16.02
2022-10-18T04:58:32.547Z,20.70
2022-10-18T05:01:00.096Z,15.70
2022-10-18T05:03:26.627Z,18.33
2022-10-18T05:06:01.956Z,17.92
2022-10-18T05:08:31.203Z,19.65
2022-10-18T05:10:57.993Z,15.48
2022-10-18T05:13:24.735Z,19.13
2022-10-18T05:15:51.440Z,16.00
2022-10-18T05:18:18.215Z,16.30
2022-10-18T05:20:44.770Z,16.83
2022-10-18T05:23:11.452Z,15.38
2022-10-18T05:25:39.912Z,20.02
2022-10-18T05:28:10.813Z,14.20
2022-10-18T05:30:47.850Z,13.77
2022-10-18T05:33:14.526Z,14.55
2022-10-18T05:35:41.025Z,16.00
2022-10-18T05:38:08.321Z,14.43
2022-10-18T05:40:34.839Z,15.35
2022-10-18T05:43:01.345Z,17.80
2022-10-18T05:45:27.906Z,14.70
2022-10-18T05:47:54.967Z,14.60
2022-10-18T05:50:21.748Z,16.02
2022-10-18T05:52:48.513Z,14.85
2022-10-18T05:55:15.149Z,15.07
2022-10-18T05:57:41.778Z,15.00
2022-10-18T06:00:09.153Z,14.75
2022-10-18T06:02:35.814Z,14.25
2022-10-18T06:05:02.415Z,14.10
2022-10-18T06:07:29.090Z,12.65
2022-10-18T06:09:55.708Z,13.55
2022-10-18T06:12:22.332Z,13.70
2022-10-18T06:14:49.418Z,15.27
2022-10-18T06:17:16.071Z,14.18
2022-10-18T06:19:44.442Z,12.90
2022-10-18T06:22:11.932Z,12.05
2022-10-18T06:24:38.522Z,11.75
2022-10-18T06:27:11.289Z,13.73
2022-10-18T06:29:41.364Z,13.10
2022-10-18T06:32:08.859Z,11.70
2022-10-18T06:34:35.433Z,13.25
2022-10-18T06:37:02.836Z,13.00
2022-10-18T06:39:29.465Z,11.40
2022-10-18T06:41:56.019Z,11.55
2022-10-18T06:44:22.624Z,11.30
2022-10-18T06:46:49.289Z,12.05
2022-10-18T06:49:19.024Z,11.40
2022-10-18T06:51:46.308Z,12.32
2022-10-18T06:54:18.099Z,12.25
2022-10-18T06:56:45.872Z,10.20
2022-10-18T06:59:12.444Z,11.05
2022-10-18T07:01:40.156Z,9.82
2022-10-18T07:04:06.966Z,9.65
2022-10-18T07:06:33.671Z,9.20
2022-10-18T07:09:02.916Z,9.77
2022-10-18T07:11:29.603Z,10.27
2022-10-18T07:14:04.917Z,9.43
2022-10-18T07:16:32.577Z,9.23
2022-10-18T07:18:59.370Z,8.93
2022-10-18T07:21:26.855Z,9.13
2022-10-18T07:23:54.071Z,8.48
2022-10-18T07:26:27.341Z,9.10
2022-10-18T07:29:00.512Z,9.98
2022-10-18T07:31:28.909Z,8.27
2022-10-18T07:33:55.644Z,8.50
2022-10-18T07:36:22.443Z,10.45
2022-10-18T07:38:49.975Z,8.27
2022-10-18T07:41:16.550Z,8.05
2022-10-18T07:43:48.709Z,9.18
2022-10-18T07:46:17.998Z,8.85
2022-10-18T07:48:44.680Z,9.25
2022-10-18T07:51:12.005Z,9.02
2022-10-18T07:53:39.103Z,8.32
2022-10-18T07:56:09.639Z,8.77
2022-10-18T07:58:36.533Z,9.18
2022-10-18T08:01:06.118Z,9.10
2022-10-18T08:03:33.473Z,9.93
2022-10-18T08:06:00.344Z,9.20
2022-10-18T08:08:27.238Z,9.77
2022-10-18T08:10:54.368Z,9.70
2022-10-18T08:13:21.146Z,9.18
2022-10-18T08:15:47.784Z,10.25
2022-10-18T08:18:14.647Z,8.50
2022-10-18T08:20:45.301Z,7.95
2022-10-18T08:23:12.208Z,8.65
2022-10-18T08:25:38.766Z,8.45
2022-10-18T08:28:05.478Z,8.05
2022-10-18T08:30:34.757Z,8.35
2022-10-18T08:33:01.380Z,8.65
2022-10-18T08:35:27.951Z,9.02
2022-10-18T08:37:54.689Z,8.98
2022-10-18T08:40:21.428Z,8.70
2022-10-18T08:43:04.826Z,8.48
2022-10-18T08:45:42.268Z,8.07
2022-10-18T08:48:21.927Z,9.20
2022-10-18T08:50:50.938Z,8.48
2022-10-18T08:53:27.155Z,8.23
2022-10-18T08:56:16.023Z,8.40
2022-10-18T08:58:44.453Z,9.18
2022-10-18T09:01:24.401Z,7.88
2022-10-18T09:04:12.451Z,8.20
2022-10-18T09:06:44.877Z,7.45
2022-10-18T09:09:35.511Z,8.40
2022-10-18T09:12:51.464Z,8.07
2022-10-18T09:15:42.684Z,7.50
2022-10-18T09:18:47.723Z,7.88
2022-10-18T09:21:20.447Z,7.32
2022-10-18T09:24:03.451Z,7.63
2022-10-18T09:26:36.350Z,6.78
2022-10-18T09:29:29.693Z,7.40
2022-10-18T09:32:04.799Z,7.28
2022-10-18T09:34:36.129Z,6.72
2022-10-18T09:37:03.699Z,7.22
2022-10-18T09:39:35.394Z,8.25
2022-10-18T09:42:26.940Z,7.55
2022-10-18T09:45:04.351Z,8.43
2022-10-18T09:47:58.216Z,7.68
2022-10-18T09:50:30.113Z,6.10
2022-10-18T09:53:25.861Z,5.35
2022-10-18T09:56:05.424Z,5.90
2022-10-18T09:58:44.247Z,5.68
2022-10-18T10:01:20.878Z,4.57
2022-10-18T10:03:47.540Z,4.15
2022-10-18T10:06:16.811Z,4.25
2022-10-18T10:08:48.715Z,4.25
2022-10-18T10:11:33.778Z,3.53
2022-10-18T10:14:19.636Z,3.20
2022-10-18T10:17:03.402Z,2.90
2022-10-18T10:19:38.937Z,2.55
2022-10-18T10:22:14.278Z,3.25
2022-10-18T10:24:53.067Z,3.10
2022-10-18T10:27:43.633Z,2.13
2022-10-18T10:30:39.710Z,2.22
2022-10-18T10:33:07.165Z,1.63
2022-10-18T10:35:56.087Z,2.00
2022-10-18T10:38:25.565Z,2.17
2022-10-18T10:40:52.489Z,2.10
2022-10-18T10:43:37.124Z,2.10
2022-10-18T10:46:16.576Z,2.10
2022-10-18T10:49:21.778Z,1.70
2022-10-18T10:52:02.397Z,1.95
2022-10-18T10:54:39.088Z,2.10
2022-10-18T10:57:12.522Z,1.58
2022-10-18T10:59:45.906Z,1.63
2022-10-18T11:02:15.515Z,1.85
2022-10-18T11:04:44.305Z,1.85
2022-10-18T11:07:13.610Z,1.95
2022-10-18T11:10:15.092Z,1.33
2022-10-18T11:13:09.851Z,1.85
2022-10-18T11:15:43.472Z,1.75
2022-10-18T11:18:24.253Z,1.80
2022-10-18T11:21:11.419Z,1.63
2022-10-18T11:23:40.138Z,1.52
2022-10-18T11:26:12.590Z,2.60
2022-10-18T11:29:01.874Z,1.90
2022-10-18T11:31:40.493Z,2.10
2022-10-18T11:34:25.718Z,1.80
2022-10-18T11:37:28.580Z,1.55
2022-10-18T11:40:13.034Z,2.38
2022-10-18T11:43:04.574Z,1.88
2022-10-18T11:46:03.415Z,1.52
2022-10-18T11:49:00.131Z,1.35
2022-10-18T11:52:07.778Z,1.38
2022-10-18T11:54:52.312Z,1.25
2022-10-18T11:57:39.360Z,1.77
2022-10-18T12:03:14.626Z,1.20
2022-10-18T12:05:44.641Z,1.52
2022-10-18T12:08:26.432Z,1.50
2022-10-18T12:11:05.230Z,1.45
2022-10-18T12:13:35.506Z,1.15
2022-10-18T12:16:07.976Z,1.30
2022-10-18T12:18:36.705Z,1.77
2022-10-18T12:21:05.534Z,1.08
2022-10-18T12:23:49.660Z,1.20
2022-10-18T12:26:17.456Z,1.75
2022-10-18T12:28:57.102Z,1.00
2022-10-18T12:31:34.006Z,0.82
2022-10-18T12:34:05.875Z,1.20
2022-10-18T12:37:07.914Z,1.23
2022-10-18T12:39:44.162Z,1.08
2022-10-18T12:42:29.686Z,1.02
2022-10-18T12:45:33.378Z,1.40
2022-10-18T12:48:04.498Z,1.20
2022-10-18T12:50:43.530Z,1.42
2022-10-18T12:53:10.191Z,1.27
2022-10-18T12:55:39.693Z,1.27
2022-10-18T12:58:32.698Z,1.77
2022-10-18T13:01:04.840Z,1.20
2022-10-18T13:03:55.248Z,0.80
2022-10-18T13:06:22.601Z,0.95
2022-10-18T13:09:20.609Z,1.02
2022-10-18T13:11:47.830Z,1.40
2022-10-18T13:14:31.121Z,1.20
2022-10-18T13:17:06.983Z,0.68
2022-10-18T13:20:23.928Z,0.98
2022-10-18T13:22:58.085Z,0.73
2022-10-18T13:25:44.880Z,1.13
2022-10-18T13:28:53.320Z,0.63
2022-10-18T13:31:29.346Z,0.88
2022-10-18T13:34:16.164Z,0.63
2022-10-18T13:36:43.296Z,1.13
2022-10-18T13:39:20.194Z,1.00
2022-10-18T13:41:46.724Z,1.67
2022-10-18T13:44:31.975Z,1.15
2022-10-18T13:46:58.626Z,0.93
2022-10-18T13:49:31.078Z,1.02
2022-10-18T13:52:35.470Z,0.90
2022-10-18T13:55:24.681Z,1.50
2022-10-18T13:58:10.175Z,1.10
2022-10-18T14:01:11.505Z,1.30
2022-10-18T14:04:06.139Z,0.90
2022-10-18T14:06:40.934Z,1.40
2022-10-18T14:09:32.781Z,1.67
2022-10-18T14:12:25.339Z,1.40
2022-10-18T14:15:06.821Z,1.70
2022-10-18T14:17:44.980Z,1.10
2022-10-18T14:20:28.721Z,1.30
2022-10-18T14:23:15.734Z,1.30
2022-10-18T14:25:43.136Z,1.38
2022-10-18T14:28:31.301Z,2.00
2022-10-18T14:31:15.136Z,1.45
2022-10-18T14:33:58.280Z,0.93
2022-10-18T14:36:36.958Z,1.02
2022-10-18T14:39:05.993Z,1.05
2022-10-18T14:41:49.022Z,1.02
2022-10-18T14:44:15.488Z,1.10
2022-10-18T14:46:44.195Z,1.10
2022-10-18T14:49:12.355Z,1.27
2022-10-18T14:51:41.950Z,1.15
2022-10-18T14:54:16.191Z,1.73
2022-10-18T14:56:43.935Z,1.25
2022-10-18T14:59:20.764Z,1.90
2022-10-18T15:02:12.402Z,1.10
2022-10-18T15:04:38.895Z,1.27
2022-10-18T15:07:08.013Z,1.17
2022-10-18T15:09:37.067Z,1.05
2022-10-18T15:12:06.506Z,1.30
2022-10-18T15:14:34.838Z,1.30
2022-10-18T15:17:26.670Z,1.35
2022-10-18T15:19:55.232Z,0.82
2022-10-18T15:22:31.827Z,1.30
2022-10-18T15:25:31.812Z,0.93
2022-10-18T15:28:00.585Z,1.10
2022-10-18T15:30:36.617Z,1.05
2022-10-18T15:33:05.623Z,1.27
2022-10-18T15:35:35.053Z,1.08
2022-10-18T15:38:15.277Z,1.25
2022-10-18T15:40:42.700Z,1.05
2022-10-18T15:43:24.308Z,1.17
2022-10-18T15:45:54.018Z,2.13
2022-10-18T15:48:27.220Z,1.65
2022-10-18T15:50:56.486Z,2.50
2022-10-18T15:53:23.640Z,1.65
2022-10-18T15:55:56.106Z,1.50
2022-10-18T15:58:29.716Z,1.40
2022-10-18T16:01:00.614Z,1.83
2022-10-18T16:03:28.589Z,1.80
2022-10-18T16:06:03.385Z,1.02
2022-10-18T16:08:31.930Z,1.17
2022-10-18T16:10:59.309Z,1.42
2022-10-18T16:13:26.807Z,1.25
2022-10-18T16:15:55.769Z,1.52
2022-10-18T16:18:23.980Z,1.80
2022-10-18T16:20:50.581Z,2.20
2022-10-18T16:23:20.431Z,2.38
2022-10-18T16:25:47.854Z,1.55
2022-10-18T16:28:20.595Z,1.50
2022-10-18T16:30:54.373Z,1.08
2022-10-18T16:33:21.768Z,2.10
2022-10-18T16:35:48.999Z,1.48
2022-10-18T16:38:45.089Z,1.23
2022-10-18T16:41:13.329Z,1.30
2022-10-18T16:43:39.976Z,2.10
2022-10-18T16:46:07.667Z,2.03
2022-10-18T16:48:34.307Z,2.30
2022-10-18T16:51:01.263Z,1.33
2022-10-18T16:53:28.157Z,1.88
2022-10-18T16:56:02.649Z,1.60
2022-10-18T16:58:31.191Z,1.65
2022-10-18T17:01:01.034Z,1.60
2022-10-18T17:03:29.597Z,1.85
2022-10-18T17:05:56.824Z,1.42
2022-10-18T17:08:25.895Z,1.60
2022-10-18T17:10:55.654Z,1.80
2022-10-18T17:13:24.284Z,1.45
2022-10-18T17:15:52.171Z,1.88
2022-10-18T17:18:22.030Z,1.67
2022-10-18T17:20:49.500Z,2.42
2022-10-18T17:23:16.122Z,1.95
2022-10-18T17:25:57.530Z,2.80
2022-10-18T17:28:31.748Z,2.25
2022-10-18T17:30:58.617Z,1.80
2022-10-18T17:33:25.173Z,1.95
2022-10-18T17:35:51.687Z,2.78
2022-10-18T17:38:18.397Z,1.63
2022-10-18T17:40:45.030Z,1.80
2022-10-18T17:43:13.734Z,1.92
2022-10-18T17:45:54.363Z,2.08
2022-10-18T17:48:21.609Z,1.98
2022-10-18T17:50:48.358Z,2.13
2022-10-18T17:53:16.175Z,1.95
2022-10-18T17:55:42.761Z,2.10
2022-10-18T17:58:10.445Z,1.95
2022-10-18T18:00:37.189Z,2.10
2022-10-18T18:03:04.169Z,2.00
2022-10-18T18:05:33.445Z,1.90
2022-10-18T18:08:03.792Z,2.40
2022-10-18T18:10:33.404Z,2.60
2022-10-18T18:13:00.614Z,2.20
2022-10-18T18:15:27.233Z,2.60
2022-10-18T18:17:57.256Z,2.70
2022-10-18T18:20:24.864Z,2.47
2022-10-18T18:22:51.622Z,2.67
2022-10-18T18:25:18.317Z,2.60
2022-10-18T18:27:44.861Z,3.53
2022-10-18T18:30:12.124Z,2.60
2022-10-18T18:32:38.692Z,2.58
2022-10-18T18:35:05.810Z,2.60
2022-10-18T18:37:32.734Z,3.42
2022-10-18T18:39:59.390Z,3.13
2022-10-18T18:42:25.957Z,3.17
2022-10-18T18:44:52.545Z,2.92
2022-10-18T18:47:21.831Z,2.85
2022-10-18T18:49:49.078Z,3.20
2022-10-18T18:52:15.626Z,2.95
2022-10-18T18:54:42.270Z,3.28
2022-10-18T18:57:08.832Z,3.33
2022-10-18T18:59:35.665Z,3.40
2022-10-18T19:02:02.279Z,3.95
2022-10-18T19:04:29.212Z,2.97
2022-10-18T19:06:57.636Z,3.60
2022-10-18T19:09:26.405Z,3.13
2022-10-18T19:11:54.838Z,3.47
2022-10-18T19:14:23.951Z,3.08
2022-10-18T19:16:55.491Z,3.40
2022-10-18T19:19:24.380Z,4.03
2022-10-18T19:21:56.796Z,2.97
2022-10-18T19:24:25.159Z,3.30
2022-10-18T19:26:54.561Z,3.20
2022-10-18T19:29:32.912Z,2.75
2022-10-18T19:32:01.485Z,2.47
2022-10-18T19:34:29.545Z,3.10
2022-10-18T19:36:57.816Z,2.75
2022-10-18T19:39:31.411Z,3.08
2022-10-18T19:42:00.420Z,2.63
2022-10-18T19:44:30.947Z,2.72
2022-10-18T19:46:57.991Z,2.20
2022-10-18T19:49:24.664Z,2.22
2022-10-18T19:51:51.683Z,2.72
2022-10-18T19:54:18.543Z,2.47
2022-10-18T19:56:45.446Z,2.63
2022-10-18T19:59:13.652Z,2.60
2022-10-18T20:01:40.815Z,2.53
2022-10-18T20:04:09.501Z,2.38
2022-10-18T20:06:37.700Z,2.40
2022-10-18T20:09:06.254Z,2.20
2022-10-18T20:11:33.502Z,2.20
2022-10-18T20:14:00.074Z,2.33
2022-10-18T20:16:30.770Z,2.15
2022-10-18T20:19:07.294Z,1.73
2022-10-18T20:21:37.335Z,2.22
2022-10-18T20:24:05.672Z,2.25
2022-10-18T20:26:33.209Z,2.58
2022-10-18T20:29:00.136Z,2.40
2022-10-18T20:31:29.640Z,2.00
2022-10-18T20:33:59.049Z,2.33
2022-10-18T20:36:26.396Z,2.30
2022-10-18T20:38:53.478Z,2.70
2022-10-18T20:41:28.688Z,2.50
2022-10-18T20:43:57.868Z,2.95
2022-10-18T20:46:25.339Z,2.55
2022-10-18T20:48:53.285Z,2.60
2022-10-18T20:51:20.645Z,2.63
2022-10-18T20:53:48.837Z,3.22
2022-10-18T20:56:17.925Z,2.55
2022-10-18T20:58:45.232Z,2.35
2022-10-18T21:01:23.853Z,2.47
2022-10-18T21:03:52.076Z,2.38
2022-10-18T21:06:24.043Z,2.63
2022-10-18T21:08:59.291Z,2.90
2022-10-18T21:11:27.196Z,2.92
2022-10-18T21:14:07.981Z,2.60
2022-10-18T21:16:35.881Z,2.90
2022-10-18T21:19:06.867Z,2.58
2022-10-18T21:21:34.238Z,2.88
2022-10-18T21:24:03.897Z,2.85
2022-10-18T21:26:34.553Z,2.38
2022-10-18T21:29:02.909Z,2.28
2022-10-18T21:31:31.461Z,2.60
2022-10-18T21:34:00.377Z,1.98
2022-10-18T21:36:29.814Z,2.72
2022-10-18T21:38:56.559Z,2.42
2022-10-18T21:41:23.187Z,1.92
2022-10-18T21:43:52.382Z,1.98
2022-10-18T21:46:21.275Z,2.17
2022-10-18T21:48:50.844Z,2.42
2022-10-18T21:51:19.615Z,1.90
2022-10-18T21:53:48.395Z,2.17
2022-10-18T21:56:20.423Z,2.10
2022-10-18T21:58:47.473Z,2.10
2022-10-18T22:01:21.255Z,2.15
2022-10-18T22:03:49.580Z,2.50
2022-10-18T22:06:17.167Z,2.17
2022-10-18T22:08:49.557Z,2.35
2022-10-18T22:11:16.648Z,2.30
2022-10-18T22:13:44.538Z,2.00
2022-10-18T22:16:14.563Z,2.85
2022-10-18T22:18:42.134Z,2.10
2022-10-18T22:21:11.089Z,2.50
2022-10-18T22:23:43.334Z,2.65
2022-10-18T22:26:13.102Z,2.22
2022-10-18T22:28:40.978Z,2.80
2022-10-18T22:31:14.569Z,2.53
2022-10-18T22:33:41.134Z,2.45
2022-10-18T22:36:08.081Z,2.40
2022-10-18T22:38:35.082Z,2.38
2022-10-18T22:41:06.263Z,2.60
2022-10-18T22:43:34.200Z,2.75
2022-10-18T22:46:05.903Z,2.55
2022-10-18T22:48:33.407Z,2.47
2022-10-18T22:51:00.664Z,2.45
2022-10-18T22:53:27.917Z,2.60
2022-10-18T22:55:54.922Z,3.00
2022-10-18T22:58:21.886Z,2.20
2022-10-18T23:00:48.677Z,2.20
2022-10-18T23:03:16.870Z,2.88
2022-10-18T23:05:45.755Z,2.50
2022-10-18T23:08:14.058Z,2.33
2022-10-18T23:10:42.330Z,2.35
2022-10-18T23:13:10.598Z,2.10
2022-10-18T23:15:39.113Z,2.50
2022-10-18T23:18:05.932Z,2.63
2022-10-18T23:20:32.631Z,2.47
2022-10-18T23:22:59.208Z,2.38
2022-10-18T23:25:27.277Z,2.40
2022-10-18T23:27:54.209Z,2.35
2022-10-18T23:30:20.896Z,2.47
2022-10-18T23:32:47.429Z,2.30
2022-10-18T23:35:14.298Z,2.20
2022-10-18T23:37:40.847Z,2.22
2022-10-18T23:40:08.314Z,2.15
2022-10-18T23:42:34.846Z,2.00
2022-10-18T23:45:01.509Z,2.50
2022-10-18T23:47:28.093Z,2.45
2022-10-18T23:49:56.398Z,2.47
2022-10-18T23:52:23.106Z,2.80
2022-10-18T23:54:49.706Z,2.85
2022-10-18T23:57:16.565Z,2.65
2022-10-18T23:59:43.106Z,2.35
